createdAt,value
2017-07-27T00:00:47.618Z,8.13
2017-07-27T00:03:15.156Z,7.70
2017-07-27T00:05:42.709Z,9.07
2017-07-27T00:08:10.225Z,8.20
2017-07-27T00:10:37.775Z,8.20
2017-07-27T00:13:05.301Z,8.57
2017-07-27T00:15:32.816Z,7.17
2017-07-27T00:18:01.131Z,8.23
2017-07-27T00:20:28.644Z,7.83
2017-07-27T00:22:56.924Z,8.40
2017-07-27T00:25:25.239Z,7.10
2017-07-27T00:27:52.756Z,7.90
2017-07-27T00:30:20.284Z,8.60
2017-07-27T00:32:47.839Z,8.40
2017-07-27T00:35:15.347Z,8.20
2017-07-27T00:37:43.628Z,8.37
2017-07-27T00:40:11.940Z,7.67
2017-07-27T00:42:39.444Z,7.60
2017-07-27T00:45:07.747Z,8.33
2017-07-27T00:47:35.261Z,6.97
2017-07-27T00:50:02.824Z,8.13
2017-07-27T00:52:30.331Z,8.60
2017-07-27T00:54:57.856Z,8.10
2017-07-27T00:57:25.407Z,7.63
2017-07-27T00:59:52.920Z,8.07
2017-07-27T01:02:20.448Z,6.73
2017-07-27T01:04:48.752Z,8.13
2017-07-27T01:07:16.308Z,7.70
2017-07-27T01:09:43.811Z,7.70
2017-07-27T01:12:11.348Z,7.70
2017-07-27T01:14:38.888Z,7.87
2017-07-27T01:17:06.404Z,8.50
2017-07-27T01:19:33.932Z,7.90
2017-07-27T01:22:01.512Z,7.60
2017-07-27T01:24:29.024Z,7.50
2017-07-27T01:26:56.535Z,7.20
2017-07-27T01:29:24.077Z,7.37
2017-07-27T01:31:51.632Z,7.27
2017-07-27T01:34:19.151Z,6.60
2017-07-27T01:36:47.423Z,7.47
2017-07-27T01:39:15.743Z,7.33
2017-07-27T01:41:43.248Z,6.33
2017-07-27T01:44:10.760Z,7.27
2017-07-27T01:46:38.303Z,8.00
2017-07-27T01:49:05.856Z,7.73
2017-07-27T01:51:33.363Z,6.80
2017-07-27T01:54:00.938Z,7.70
2017-07-27T01:56:28.443Z,7.17
2017-07-27T01:58:55.953Z,7.03
2017-07-27T02:01:23.511Z,8.00
2017-07-27T02:03:51.020Z,7.63
2017-07-27T02:06:18.527Z,7.10
2017-07-27T02:08:46.084Z,8.00
2017-07-27T02:11:13.587Z,6.70
2017-07-27T02:13:41.095Z,6.17
2017-07-27T02:16:08.650Z,8.70
2017-07-27T02:18:36.167Z,6.20
2017-07-27T02:21:03.682Z,6.40
2017-07-27T02:23:31.219Z,6.90
2017-07-27T02:25:58.735Z,7.90
2017-07-27T02:28:27.061Z,6.27
2017-07-27T02:30:54.569Z,6.83
2017-07-27T02:33:22.843Z,7.30
2017-07-27T02:35:50.375Z,6.47
2017-07-27T02:38:17.919Z,6.27
2017-07-27T02:40:45.449Z,6.77
2017-07-27T02:43:12.957Z,6.77
2017-07-27T02:45:40.504Z,6.03
2017-07-27T02:48:08.019Z,6.17
2017-07-27T02:50:36.330Z,6.53
2017-07-27T02:53:03.880Z,5.80
2017-07-27T02:55:31.388Z,5.90
2017-07-27T02:57:58.895Z,5.33
2017-07-27T03:00:26.498Z,6.97
2017-07-27T03:02:54.003Z,6.13
2017-07-27T03:05:22.307Z,5.93
2017-07-27T03:07:49.871Z,7.33
2017-07-27T03:10:17.385Z,5.93
2017-07-27T03:12:45.655Z,5.53
2017-07-27T03:15:13.195Z,6.40
2017-07-27T03:17:40.736Z,8.33
2017-07-27T03:20:08.304Z,6.63
2017-07-27T03:22:35.821Z,5.60
2017-07-27T03:25:04.095Z,5.67
2017-07-27T03:27:32.411Z,6.10
2017-07-27T03:29:59.940Z,5.97
2017-07-27T03:32:27.439Z,6.03
2017-07-27T03:34:54.980Z,5.90
2017-07-27T03:37:22.524Z,6.43
2017-07-27T03:39:50.068Z,5.47
2017-07-27T03:42:18.350Z,5.80
2017-07-27T03:44:45.920Z,5.50
2017-07-27T03:47:13.459Z,6.53
2017-07-27T03:49:41.735Z,5.60
2017-07-27T03:52:10.059Z,5.90
2017-07-27T03:54:37.575Z,5.67
2017-07-27T03:57:05.852Z,6.13
2017-07-27T03:59:33.413Z,5.40
2017-07-27T04:02:01.741Z,5.10
2017-07-27T04:04:29.248Z,5.10
2017-07-27T04:06:56.756Z,5.70
2017-07-27T04:09:24.307Z,5.73
2017-07-27T04:11:51.816Z,5.90
2017-07-27T04:14:19.320Z,4.80
2017-07-27T04:16:46.867Z,6.73
2017-07-27T04:19:14.473Z,5.53
2017-07-27T04:21:42.064Z,5.90
2017-07-27T04:24:09.571Z,6.00
2017-07-27T04:26:37.079Z,6.03
2017-07-27T04:29:04.599Z,6.00
2017-07-27T04:31:32.100Z,5.67
2017-07-27T04:33:59.664Z,5.60
2017-07-27T04:36:27.939Z,4.97
2017-07-27T04:38:55.459Z,5.70
2017-07-27T04:41:23.011Z,5.77
2017-07-27T04:43:50.528Z,6.03
2017-07-27T04:46:19.028Z,6.40
2017-07-27T04:48:46.583Z,6.17
2017-07-27T04:51:14.860Z,6.63
2017-07-27T04:53:43.132Z,5.30
2017-07-27T04:56:11.445Z,6.97
2017-07-27T04:58:38.961Z,5.03
2017-07-27T05:01:07.289Z,4.80
2017-07-27T05:03:34.808Z,4.70
2017-07-27T05:06:02.339Z,4.27
2017-07-27T05:08:29.882Z,5.10
2017-07-27T05:10:57.396Z,4.63
2017-07-27T05:13:25.675Z,4.90
2017-07-27T05:15:53.967Z,5.00
2017-07-27T05:18:21.475Z,4.03
2017-07-27T05:20:49.019Z,4.73
2017-07-27T05:23:16.528Z,3.80
2017-07-27T05:25:44.839Z,4.30
2017-07-27T05:28:12.387Z,4.00
2017-07-27T05:30:39.904Z,4.93
2017-07-27T05:33:07.416Z,3.67
2017-07-27T05:35:34.972Z,6.17
2017-07-27T05:38:02.501Z,4.03
2017-07-27T05:40:30.780Z,4.97
2017-07-27T05:42:59.198Z,4.10
2017-07-27T05:45:26.756Z,6.77
2017-07-27T05:47:54.999Z,4.33
2017-07-27T05:50:22.503Z,3.73
2017-07-27T05:52:50.062Z,3.87
2017-07-27T05:55:17.580Z,3.67
2017-07-27T05:57:45.852Z,3.93
2017-07-27T06:00:14.178Z,4.47
2017-07-27T06:02:41.692Z,4.23
2017-07-27T06:05:09.199Z,3.57
2017-07-27T06:07:36.746Z,3.67
2017-07-27T06:10:04.246Z,3.67
2017-07-27T06:12:31.800Z,4.63
2017-07-27T06:14:59.311Z,3.97
2017-07-27T06:17:26.819Z,4.30
2017-07-27T06:19:54.359Z,3.83
2017-07-27T06:22:21.879Z,3.33
2017-07-27T06:24:49.408Z,3.83
2017-07-27T06:27:16.963Z,3.97
2017-07-27T06:29:44.481Z,4.00
2017-07-27T06:32:12.004Z,4.20
2017-07-27T06:34:40.343Z,3.03
2017-07-27T06:37:07.843Z,5.10
2017-07-27T06:39:35.363Z,3.90
2017-07-27T06:42:02.911Z,4.10
2017-07-27T06:44:30.420Z,3.90
2017-07-27T06:46:57.928Z,3.93
2017-07-27T06:49:25.467Z,3.10
2017-07-27T06:51:52.987Z,3.30
2017-07-27T06:54:20.552Z,4.47
2017-07-27T06:56:48.065Z,3.80
2017-07-27T06:59:15.570Z,3.80
2017-07-27T07:01:43.128Z,4.00
2017-07-27T07:04:10.639Z,4.60
2017-07-27T07:06:38.149Z,3.87
2017-07-27T07:09:05.695Z,3.83
2017-07-27T07:11:33.251Z,3.93
2017-07-27T07:14:00.759Z,3.87
2017-07-27T07:16:28.309Z,4.10
2017-07-27T07:18:56.596Z,3.63
2017-07-27T07:21:24.139Z,3.70
2017-07-27T07:23:51.651Z,5.47
2017-07-27T07:26:19.236Z,3.60
2017-07-27T07:28:46.745Z,3.57
2017-07-27T07:31:14.256Z,3.43
2017-07-27T07:33:41.821Z,4.23
2017-07-27T07:36:09.336Z,3.60
2017-07-27T07:38:36.842Z,3.90
2017-07-27T07:41:04.378Z,2.73
2017-07-27T07:43:31.912Z,3.13
2017-07-27T07:45:59.415Z,3.03
2017-07-27T07:48:26.967Z,2.57
2017-07-27T07:50:54.471Z,2.90
2017-07-27T07:53:21.972Z,5.70
2017-07-27T07:55:49.521Z,3.00
2017-07-27T07:58:17.037Z,4.10
2017-07-27T08:00:45.319Z,2.50
2017-07-27T08:03:13.625Z,3.50
2017-07-27T08:05:41.137Z,3.53
2017-07-27T08:08:08.664Z,3.70
2017-07-27T08:10:36.176Z,3.10
2017-07-27T08:13:04.501Z,3.53
2017-07-27T08:15:32.005Z,3.70
2017-07-27T08:18:00.284Z,3.03
2017-07-27T08:20:28.609Z,3.20
2017-07-27T08:22:56.118Z,6.33
2017-07-27T08:25:24.392Z,3.37
2017-07-27T08:27:51.952Z,2.80
2017-07-27T08:30:19.457Z,3.53
2017-07-27T08:32:46.969Z,2.97
2017-07-27T08:35:14.522Z,2.57
2017-07-27T08:37:42.027Z,3.60
2017-07-27T08:40:09.535Z,3.17
2017-07-27T08:42:37.076Z,3.37
2017-07-27T08:45:04.579Z,3.03
2017-07-27T08:47:32.891Z,2.90
2017-07-27T08:50:00.397Z,3.17
2017-07-27T08:52:27.912Z,3.40
2017-07-27T08:54:55.478Z,3.17
2017-07-27T08:57:22.988Z,2.87
2017-07-27T08:59:50.513Z,3.17
2017-07-27T09:02:18.052Z,3.40
2017-07-27T09:04:45.595Z,3.03
2017-07-27T09:07:13.107Z,3.77
2017-07-27T09:09:40.615Z,3.43
2017-07-27T09:12:08.156Z,3.00
2017-07-27T09:14:36.435Z,3.23
2017-07-27T09:17:04.715Z,2.97
2017-07-27T09:19:33.041Z,3.70
2017-07-27T09:22:00.550Z,3.30
2017-07-27T09:24:28.825Z,3.43
2017-07-27T09:26:57.143Z,3.30
2017-07-27T09:29:24.648Z,4.43
2017-07-27T09:31:52.156Z,4.53
2017-07-27T09:34:19.700Z,3.07
2017-07-27T09:36:47.213Z,3.70
2017-07-27T09:39:14.764Z,3.33
2017-07-27T09:41:42.269Z,3.10
2017-07-27T09:44:10.536Z,2.93
2017-07-27T09:46:38.825Z,3.03
2017-07-27T09:49:06.328Z,2.70
2017-07-27T09:51:33.888Z,2.90
2017-07-27T09:54:01.396Z,3.07
2017-07-27T09:56:28.908Z,3.77
2017-07-27T09:58:56.455Z,2.93
2017-07-27T10:01:23.968Z,2.90
2017-07-27T10:03:51.515Z,3.07
2017-07-27T10:06:19.028Z,3.67
2017-07-27T10:08:46.534Z,4.00
2017-07-27T10:11:14.087Z,2.93
2017-07-27T10:13:41.615Z,2.90
2017-07-27T10:16:09.120Z,3.53
2017-07-27T10:18:36.682Z,2.73
2017-07-27T10:21:04.190Z,3.40
2017-07-27T10:23:31.711Z,2.40
2017-07-27T10:26:00.113Z,2.97
2017-07-27T10:28:27.657Z,3.13
2017-07-27T10:30:55.963Z,3.27
2017-07-27T10:33:23.507Z,3.33
2017-07-27T10:35:51.012Z,3.27
2017-07-27T10:38:18.559Z,3.80
2017-07-27T10:40:46.063Z,3.50
2017-07-27T10:43:13.573Z,4.40
2017-07-27T10:45:41.117Z,3.93
2017-07-27T10:48:08.624Z,3.20
2017-07-27T10:50:36.124Z,3.30
2017-07-27T10:53:03.682Z,3.07
2017-07-27T10:55:31.957Z,3.00
2017-07-27T10:58:00.232Z,3.93
2017-07-27T11:00:27.780Z,3.60
2017-07-27T11:02:56.055Z,3.73
2017-07-27T11:05:24.381Z,3.30
2017-07-27T11:07:51.892Z,4.97
2017-07-27T11:10:20.168Z,3.77
2017-07-27T11:12:47.716Z,3.73
2017-07-27T11:15:15.220Z,4.30
2017-07-27T11:17:42.746Z,5.37
2017-07-27T11:20:11.072Z,4.67
2017-07-27T11:22:38.581Z,4.30
2017-07-27T11:25:06.084Z,4.60
2017-07-27T11:27:33.608Z,4.80
2017-07-27T11:30:01.111Z,4.77
2017-07-27T11:32:28.648Z,4.23
2017-07-27T11:34:56.162Z,4.43
2017-07-27T11:37:23.711Z,4.20
2017-07-27T11:39:51.208Z,3.90
2017-07-27T11:42:19.483Z,4.33
2017-07-27T11:44:47.037Z,3.30
2017-07-27T11:47:14.547Z,3.43
2017-07-27T11:49:42.055Z,3.10
2017-07-27T11:52:09.597Z,3.30
2017-07-27T11:54:37.151Z,3.30
2017-07-27T11:57:04.659Z,3.23
2017-07-27T11:59:32.163Z,3.43
2017-07-27T12:01:59.716Z,3.13
2017-07-27T12:04:27.218Z,2.70
2017-07-27T12:06:55.495Z,3.30
2017-07-27T12:09:23.027Z,3.40
2017-07-27T12:11:50.535Z,3.23
2017-07-27T12:14:18.856Z,3.10
2017-07-27T12:16:46.363Z,3.43
2017-07-27T12:19:13.868Z,3.20
2017-07-27T12:21:41.430Z,3.73
2017-07-27T12:24:08.937Z,2.90
2017-07-27T12:26:36.459Z,3.20
2017-07-27T12:29:03.996Z,3.10
2017-07-27T12:31:31.571Z,4.90
2017-07-27T12:33:59.083Z,3.53
2017-07-27T12:36:27.359Z,3.23
2017-07-27T12:38:55.661Z,2.93
2017-07-27T12:41:23.172Z,3.10
2017-07-27T12:43:50.734Z,3.13
2017-07-27T12:46:18.246Z,3.20
2017-07-27T12:48:45.771Z,3.50
2017-07-27T12:51:14.079Z,3.80
2017-07-27T12:53:41.588Z,4.30
2017-07-27T12:56:09.159Z,5.13
2017-07-27T12:58:36.669Z,3.50
2017-07-27T13:01:04.173Z,5.70
2017-07-27T13:03:31.744Z,7.50
2017-07-27T13:05:59.254Z,4.80
2017-07-27T13:08:26.761Z,4.27
2017-07-27T13:10:54.325Z,4.40
2017-07-27T13:13:22.609Z,4.13
2017-07-27T13:15:50.944Z,4.07
2017-07-27T13:18:18.443Z,4.00
2017-07-27T13:20:46.730Z,4.20
2017-07-27T13:23:15.058Z,3.90
2017-07-27T13:25:42.566Z,4.00
2017-07-27T13:28:10.844Z,4.37
2017-07-27T13:30:38.387Z,3.90
2017-07-27T13:33:05.908Z,3.30
2017-07-27T13:35:33.468Z,3.77
2017-07-27T13:38:00.979Z,3.30
2017-07-27T13:40:29.251Z,4.40
2017-07-27T13:42:57.937Z,3.80
2017-07-27T13:45:26.227Z,3.30
2017-07-27T13:47:53.799Z,3.37
2017-07-27T13:50:21.316Z,3.90
2017-07-27T13:52:48.828Z,3.17
2017-07-27T13:55:16.401Z,3.40
2017-07-27T13:57:43.912Z,4.00
2017-07-27T14:00:11.424Z,3.10
2017-07-27T14:02:38.970Z,3.00
2017-07-27T14:05:06.482Z,3.00
2017-07-27T14:07:33.997Z,3.43
2017-07-27T14:10:01.773Z,2.83
2017-07-27T14:12:30.055Z,2.90
2017-07-27T14:14:57.596Z,3.40
2017-07-27T14:17:25.164Z,3.33
2017-07-27T14:19:52.677Z,2.80
2017-07-27T14:22:20.192Z,3.77
2017-07-27T14:24:47.736Z,3.50
2017-07-27T14:27:15.307Z,4.50
2017-07-27T14:29:42.819Z,4.30
2017-07-27T14:32:11.112Z,5.67
2017-07-27T14:34:38.671Z,4.10
2017-07-27T14:37:06.944Z,3.30
2017-07-27T14:39:35.257Z,2.73
2017-07-27T14:42:02.767Z,3.63
2017-07-27T14:44:30.307Z,3.37
2017-07-27T14:46:57.822Z,3.33
2017-07-27T14:49:25.461Z,3.40
2017-07-27T14:51:52.999Z,3.70
2017-07-27T14:54:20.559Z,3.13
2017-07-27T14:56:48.072Z,3.43
2017-07-27T14:59:15.589Z,3.17
2017-07-27T15:01:43.913Z,3.17
2017-07-27T15:04:11.471Z,3.20
2017-07-27T15:06:38.981Z,2.97
2017-07-27T15:09:06.499Z,3.77
2017-07-27T15:11:34.824Z,4.57
2017-07-27T15:14:03.107Z,3.40
2017-07-27T15:16:31.395Z,3.37
2017-07-27T15:18:59.689Z,3.30
2017-07-27T15:21:27.212Z,2.83
2017-07-27T15:23:54.759Z,2.83
2017-07-27T15:26:22.264Z,2.83
2017-07-27T15:28:49.807Z,2.83
2017-07-27T15:31:18.088Z,3.00
2017-07-27T15:33:45.635Z,3.30
2017-07-27T15:36:13.151Z,2.13
2017-07-27T15:38:40.670Z,2.23
2017-07-27T15:41:08.992Z,2.43
2017-07-27T15:43:36.499Z,2.37
2017-07-27T15:46:04.012Z,5.13
2017-07-27T15:48:31.572Z,3.97
2017-07-27T15:50:59.093Z,2.70
2017-07-27T15:53:27.385Z,2.60
2017-07-27T15:55:54.971Z,2.03
2017-07-27T15:58:23.389Z,2.90
2017-07-27T16:00:50.942Z,2.17
2017-07-27T16:03:21.367Z,2.50
2017-07-27T16:05:49.005Z,1.93
2017-07-27T16:08:16.573Z,3.13
2017-07-27T16:10:44.087Z,2.67
2017-07-27T16:13:11.598Z,1.90
2017-07-27T16:15:39.135Z,2.37
2017-07-27T16:18:06.696Z,2.00
2017-07-27T16:20:34.251Z,2.30
2017-07-27T16:23:01.760Z,2.33
2017-07-27T16:25:29.272Z,2.50
2017-07-27T16:27:56.812Z,2.30
2017-07-27T16:30:24.356Z,1.97
2017-07-27T16:32:52.664Z,2.60
2017-07-27T16:35:20.211Z,2.43
2017-07-27T16:37:47.724Z,1.83
2017-07-27T16:40:15.284Z,1.83
2017-07-27T16:42:42.810Z,2.13
2017-07-27T16:45:10.345Z,2.30
2017-07-27T16:47:37.898Z,2.60
2017-07-27T16:50:05.419Z,2.03
2017-07-27T16:52:32.976Z,1.87
2017-07-27T16:55:00.493Z,2.57
2017-07-27T16:57:28.020Z,2.20
2017-07-27T16:59:55.588Z,2.57
2017-07-27T17:02:23.867Z,2.20
2017-07-27T17:04:52.148Z,1.67
2017-07-27T17:07:20.467Z,2.53
2017-07-27T17:09:47.985Z,2.00
2017-07-27T17:12:16.264Z,2.20
2017-07-27T17:14:44.583Z,2.33
2017-07-27T17:17:12.138Z,1.90
2017-07-27T17:19:39.648Z,2.23
2017-07-27T17:22:07.205Z,2.10
2017-07-27T17:24:35.495Z,3.10
2017-07-27T17:27:03.783Z,2.23
2017-07-27T17:29:31.332Z,1.73
2017-07-27T17:31:59.613Z,3.23
2017-07-27T17:34:28.034Z,1.87
2017-07-27T17:36:55.550Z,2.17
2017-07-27T17:39:23.839Z,1.80
2017-07-27T17:41:51.416Z,2.17
2017-07-27T17:44:18.931Z,2.50
2017-07-27T17:46:46.480Z,2.53
2017-07-27T17:49:14.027Z,1.93
2017-07-27T17:51:41.576Z,2.33
2017-07-27T17:54:09.097Z,2.30
2017-07-27T17:56:37.422Z,1.83
2017-07-27T17:59:05.475Z,1.77
2017-07-27T18:01:33.124Z,2.00
2017-07-27T18:04:00.672Z,2.13
2017-07-27T18:06:29.067Z,2.33
2017-07-27T18:08:56.664Z,1.60
2017-07-27T18:11:24.182Z,3.07
2017-07-27T18:13:51.712Z,2.87
2017-07-27T18:16:19.267Z,3.57
2017-07-27T18:18:46.780Z,3.50
2017-07-27T18:21:14.317Z,2.20
2017-07-27T18:23:41.865Z,1.93
2017-07-27T18:26:09.379Z,1.97
2017-07-27T18:28:36.939Z,2.20
2017-07-27T18:31:04.451Z,2.33
2017-07-27T18:33:32.738Z,2.40
2017-07-27T18:36:00.296Z,2.20
2017-07-27T18:38:27.860Z,3.47
2017-07-27T18:40:55.368Z,2.50
2017-07-27T18:43:22.910Z,2.33
2017-07-27T18:45:50.463Z,3.23
2017-07-27T18:48:17.975Z,2.27
2017-07-27T18:50:45.483Z,2.47
2017-07-27T18:53:13.047Z,2.70
2017-07-27T18:55:40.554Z,2.40
2017-07-27T18:58:08.068Z,2.80
2017-07-27T19:00:35.615Z,2.80
2017-07-27T19:03:03.129Z,2.57
2017-07-27T19:05:30.677Z,3.00
2017-07-27T19:07:58.198Z,2.77
2017-07-27T19:10:25.742Z,2.47
2017-07-27T19:12:53.251Z,2.40
2017-07-27T19:15:20.828Z,2.53
2017-07-27T19:17:48.348Z,2.70
2017-07-27T19:20:15.856Z,2.13
2017-07-27T19:22:44.163Z,3.20
2017-07-27T19:25:11.687Z,3.07
2017-07-27T19:27:39.249Z,3.70
2017-07-27T19:30:06.767Z,3.40
2017-07-27T19:32:34.303Z,2.50
2017-07-27T19:35:01.845Z,3.20
2017-07-27T19:37:29.395Z,2.93
2017-07-27T19:39:57.712Z,2.57
2017-07-27T19:42:25.260Z,2.80
2017-07-27T19:44:52.817Z,3.30
2017-07-27T19:47:20.328Z,3.47
2017-07-27T19:49:47.936Z,3.53
2017-07-27T19:52:15.530Z,3.13
2017-07-27T19:54:43.043Z,3.40
2017-07-27T19:57:10.563Z,3.00
2017-07-27T19:59:38.111Z,3.20
2017-07-27T20:02:05.621Z,3.03
2017-07-27T20:04:33.944Z,3.20
2017-07-27T20:07:01.459Z,3.63
2017-07-27T20:09:29.757Z,3.37
2017-07-27T20:11:57.307Z,3.63
2017-07-27T20:14:25.583Z,2.90
2017-07-27T20:16:53.860Z,2.97
2017-07-27T20:19:22.171Z,3.63
2017-07-27T20:21:49.764Z,2.83
2017-07-27T20:24:17.281Z,4.13
2017-07-27T20:26:44.800Z,3.60
2017-07-27T20:29:12.369Z,2.70
2017-07-27T20:31:40.647Z,2.80
2017-07-27T20:34:08.157Z,3.40
2017-07-27T20:36:35.711Z,3.70
2017-07-27T20:39:03.237Z,3.80
2017-07-27T20:41:31.527Z,3.87
2017-07-27T20:43:59.080Z,3.33
2017-07-27T20:46:26.602Z,3.77
2017-07-27T20:48:54.157Z,3.60
2017-07-27T20:51:21.663Z,3.17
2017-07-27T20:53:49.180Z,3.67
2017-07-27T20:56:16.709Z,3.43
2017-07-27T20:58:44.254Z,3.77
2017-07-27T21:01:11.813Z,3.40
2017-07-27T21:03:39.328Z,3.80
2017-07-27T21:06:06.857Z,3.60
2017-07-27T21:08:34.404Z,3.53
2017-07-27T21:11:01.917Z,4.20
2017-07-27T21:13:29.467Z,4.27
2017-07-27T21:15:56.972Z,4.20
2017-07-27T21:18:24.489Z,3.37
2017-07-27T21:20:52.026Z,3.80
2017-07-27T21:23:19.538Z,4.30
2017-07-27T21:25:47.097Z,3.97
2017-07-27T21:28:15.374Z,4.30
2017-07-27T21:30:43.680Z,4.60
2017-07-27T21:33:11.245Z,4.40
2017-07-27T21:35:38.961Z,4.40
2017-07-27T21:38:07.247Z,4.23
2017-07-27T21:40:35.588Z,4.10
2017-07-27T21:43:03.099Z,5.47
2017-07-27T21:45:30.619Z,4.57
2017-07-27T21:47:58.169Z,5.20
2017-07-27T21:50:25.680Z,5.77
2017-07-27T21:52:53.187Z,4.70
2017-07-27T21:55:20.735Z,4.50
2017-07-27T21:57:48.252Z,4.87
2017-07-27T22:00:16.571Z,5.40
2017-07-27T22:02:44.093Z,5.73
2017-07-27T22:05:11.625Z,5.23
2017-07-27T22:07:39.163Z,5.10
2017-07-27T22:10:06.676Z,4.80
2017-07-27T22:12:34.243Z,5.00
2017-07-27T22:15:01.769Z,5.03
2017-07-27T22:17:29.286Z,4.57
2017-07-27T22:19:56.833Z,4.93
2017-07-27T22:22:24.348Z,6.27
2017-07-27T22:24:51.899Z,4.70
2017-07-27T22:27:19.413Z,5.97
2017-07-27T22:29:46.920Z,5.40
2017-07-27T22:32:14.467Z,6.07
2017-07-27T22:34:41.988Z,5.70
2017-07-27T22:37:09.496Z,6.07
2017-07-27T22:39:37.061Z,6.40
2017-07-27T22:42:04.594Z,4.80
2017-07-27T22:44:32.103Z,5.97
2017-07-27T22:47:00.413Z,5.50
2017-07-27T22:49:27.942Z,4.90
2017-07-27T22:51:56.259Z,4.87
2017-07-27T22:54:23.768Z,5.20
2017-07-27T22:56:52.089Z,6.37
2017-07-27T22:59:19.597Z,6.40
2017-07-27T23:01:47.160Z,6.43
2017-07-27T23:04:14.672Z,6.13
2017-07-27T23:06:42.183Z,6.53
2017-07-27T23:09:09.724Z,6.03
2017-07-27T23:11:37.237Z,5.80
2017-07-27T23:14:04.794Z,5.63
2017-07-27T23:16:32.303Z,5.17
2017-07-27T23:18:59.816Z,6.57
2017-07-27T23:21:27.373Z,6.30
2017-07-27T23:23:54.880Z,6.23
2017-07-27T23:26:22.396Z,6.53
2017-07-27T23:28:49.953Z,5.30
2017-07-27T23:31:17.472Z,5.70
2017-07-27T23:33:44.989Z,5.50
2017-07-27T23:36:12.535Z,5.80
2017-07-27T23:38:40.087Z,7.20
2017-07-27T23:41:07.600Z,6.13
2017-07-27T23:43:35.143Z,6.43
2017-07-27T23:46:02.660Z,6.30
2017-07-27T23:48:30.940Z,6.10
2017-07-27T23:50:58.490Z,6.67
2017-07-27T23:53:26.774Z,6.90
2017-07-27T23:55:54.289Z,8.03
2017-07-27T23:58:21.835Z,6.67
